createdAt,value
2022-09-02T00:02:17.370Z,96619.88
2022-09-02T00:04:44.967Z,96618.41
2022-09-02T00:07:11.807Z,96619.28
2022-09-02T00:09:40.407Z,96617.91
2022-09-02T00:12:09.599Z,96609.13
2022-09-02T00:14:39.373Z,96611.69
2022-09-02T00:17:06.790Z,96616.59
2022-09-02T00:19:35.490Z,96604.38
2022-09-02T00:22:03.262Z,96608.03
2022-09-02T00:24:31.419Z,96608.03
2022-09-02T00:26:58.286Z,96613.34
2022-09-02T00:29:27.232Z,96602.75
2022-09-02T00:31:54.464Z,96603.41
2022-09-02T00:34:21.318Z,96607.28
2022-09-02T00:36:48.255Z,96597.16
2022-09-02T00:39:15.202Z,96602.94
2022-09-02T00:41:44.554Z,96605.97
2022-09-02T00:44:16.064Z,96604.50
2022-09-02T00:46:43.497Z,96600.47
2022-09-02T00:49:24.880Z,96597.59
2022-09-02T00:51:59.518Z,96598.53
2022-09-02T00:54:30.159Z,96590.75
2022-09-02T00:56:57.632Z,96599.72
2022-09-02T00:59:38.857Z,96593.25
2022-09-02T01:02:07.394Z,96589.56
2022-09-02T01:04:35.296Z,96587.88
2022-09-02T01:07:03.274Z,96595.28
2022-09-02T01:09:33.323Z,96596.09
2022-09-02T01:12:03.070Z,96593.75
2022-09-02T01:14:30.196Z,96603.88
2022-09-02T01:17:01.855Z,96599.19
2022-09-02T01:19:45.908Z,96590.38
2022-09-02T01:22:24.067Z,96592.09
2022-09-02T01:24:51.979Z,96589.63
2022-09-02T01:27:22.413Z,96592.91
2022-09-02T01:29:57.664Z,96594.50
2022-09-02T01:32:26.094Z,96591.25
2022-09-02T01:34:53.139Z,96592.56
2022-09-02T01:37:20.764Z,96594.91
2022-09-02T01:39:48.653Z,96590.50
2022-09-02T01:42:16.292Z,96588.44
2022-09-02T01:44:45.751Z,96585.78
2022-09-02T01:47:25.350Z,96588.06
2022-09-02T01:49:53.083Z,96582.41
2022-09-02T01:52:22.943Z,96591.63
2022-09-02T01:54:49.970Z,96581.84
2022-09-02T01:57:17.095Z,96584.13
2022-09-02T01:59:46.078Z,96585.84
2022-09-02T02:02:14.641Z,96577.47
2022-09-02T02:04:41.512Z,96580.19
2022-09-02T02:07:08.338Z,96581.44
2022-09-02T02:09:35.207Z,96574.84
2022-09-02T02:12:02.126Z,96571.56
2022-09-02T02:14:30.223Z,96566.09
2022-09-02T02:16:57.082Z,96568.38
2022-09-02T02:19:23.885Z,96572.03
2022-09-02T02:21:50.818Z,96568.00
2022-09-02T02:24:18.538Z,96567.00
2022-09-02T02:26:45.574Z,96565.63
2022-09-02T02:29:13.875Z,96568.00
2022-09-02T02:31:41.453Z,96570.84
2022-09-02T02:34:08.587Z,96567.19
2022-09-02T02:36:35.374Z,96564.50
2022-09-02T02:39:02.606Z,96563.94
2022-09-02T02:41:33.555Z,96566.38
2022-09-02T02:44:00.458Z,96572.09
2022-09-02T02:46:28.621Z,96562.25
2022-09-02T02:48:55.529Z,96558.91
2022-09-02T02:51:22.419Z,96560.53
2022-09-02T02:53:49.243Z,96563.88
2022-09-02T02:56:16.098Z,96559.59
2022-09-02T02:58:43.043Z,96557.22
2022-09-02T03:01:10.383Z,96556.81
2022-09-02T03:03:37.225Z,96558.38
2022-09-02T03:06:04.223Z,96555.91
2022-09-02T03:08:31.984Z,96543.84
2022-09-02T03:10:59.659Z,96553.19
2022-09-02T03:13:27.313Z,96543.69
2022-09-02T03:15:56.849Z,96547.81
2022-09-02T03:18:23.835Z,96545.06
2022-09-02T03:20:51.193Z,96547.16
2022-09-02T03:23:18.891Z,96547.06
2022-09-02T03:25:46.356Z,96539.88
2022-09-02T03:28:13.675Z,96538.63
2022-09-02T03:30:41.945Z,96536.84
2022-09-02T03:33:08.903Z,96542.56
2022-09-02T03:35:41.402Z,96548.25
2022-09-02T03:38:09.197Z,96544.63
2022-09-02T03:40:36.569Z,96543.03
2022-09-02T03:43:04.899Z,96536.91
2022-09-02T03:45:32.579Z,96532.22
2022-09-02T03:47:59.686Z,96528.53
2022-09-02T03:50:34.182Z,96528.47
2022-09-02T03:53:01.408Z,96526.91
2022-09-02T03:55:28.675Z,96530.72
2022-09-02T03:57:55.969Z,96536.13
2022-09-02T04:00:25.578Z,96539.06
2022-09-02T04:02:55.224Z,96533.91
2022-09-02T04:05:23.274Z,96530.56
2022-09-02T04:07:52.610Z,96536.66
2022-09-02T04:10:21.890Z,96543.56
2022-09-02T04:12:50.072Z,96537.66
2022-09-02T04:15:16.991Z,96535.88
2022-09-02T04:17:44.056Z,96533.09
2022-09-02T04:20:13.372Z,96530.22
2022-09-02T04:22:40.815Z,96530.66
2022-09-02T04:25:09.611Z,96533.31
2022-09-02T04:27:37.026Z,96536.69
2022-09-02T04:30:05.840Z,96538.53
2022-09-02T04:32:35.835Z,96538.69
2022-09-02T04:35:06.983Z,96540.69
2022-09-02T04:37:33.849Z,96538.28
2022-09-02T04:40:00.811Z,96545.16
2022-09-02T04:42:27.763Z,96536.72
2022-09-02T04:44:56.467Z,96537.66
2022-09-02T04:47:23.722Z,96539.34
2022-09-02T04:49:54.170Z,96536.28
2022-09-02T04:52:21.311Z,96532.56
2022-09-02T04:54:48.503Z,96538.69
2022-09-02T04:57:15.846Z,96544.34
2022-09-02T04:59:42.697Z,96544.75
2022-09-02T05:02:09.979Z,96539.78
2022-09-02T05:04:37.107Z,96545.28
2022-09-02T05:07:04.268Z,96543.81
2022-09-02T05:09:32.402Z,96545.78
2022-09-02T05:12:04.103Z,96545.78
2022-09-02T05:14:31.643Z,96543.75
2022-09-02T05:17:03.865Z,96546.53
2022-09-02T05:19:33.955Z,96545.94
2022-09-02T05:22:01.765Z,96548.06
2022-09-02T05:24:29.515Z,96552.50
2022-09-02T05:26:56.386Z,96544.81
2022-09-02T05:29:23.791Z,96553.88
2022-09-02T05:31:50.742Z,96543.75
2022-09-02T05:34:18.099Z,96552.44
2022-09-02T05:36:45.746Z,96546.03
2022-09-02T05:39:12.675Z,96551.41
2022-09-02T05:41:39.709Z,96546.72
2022-09-02T05:44:07.061Z,96547.00
2022-09-02T05:46:34.867Z,96547.16
2022-09-02T05:49:17.608Z,96551.06
2022-09-02T05:51:49.213Z,96544.00
2022-09-02T05:54:22.949Z,96546.41
2022-09-02T05:56:57.399Z,96543.88
2022-09-02T05:59:26.954Z,96545.19
2022-09-02T06:01:54.564Z,96546.00
2022-09-02T06:04:22.629Z,96548.19
2022-09-02T06:06:50.671Z,96547.59
2022-09-02T06:09:21.286Z,96540.22
2022-09-02T06:11:49.651Z,96543.63
2022-09-02T06:14:21.738Z,96541.97
2022-09-02T06:16:53.709Z,96541.88
2022-09-02T06:19:21.817Z,96546.63
2022-09-02T06:21:49.706Z,96533.09
2022-09-02T06:24:17.139Z,96534.28
2022-09-02T06:26:44.300Z,96534.75
2022-09-02T06:29:12.178Z,96534.56
2022-09-02T06:31:46.349Z,96518.50
2022-09-02T06:34:16.207Z,96534.25
2022-09-02T06:36:46.853Z,96537.56
2022-09-02T06:39:19.354Z,96519.88
2022-09-02T06:41:48.456Z,96524.63
2022-09-02T06:44:16.760Z,96529.25
2022-09-02T06:46:48.128Z,96519.38
2022-09-02T06:49:16.613Z,96520.63
2022-09-02T06:51:48.486Z,96523.38
2022-09-02T06:54:20.534Z,96522.06
2022-09-02T06:56:49.767Z,96534.16
2022-09-02T06:59:18.782Z,96524.75
2022-09-02T07:01:46.613Z,96537.00
2022-09-02T07:04:31.979Z,96529.69
2022-09-02T07:06:58.875Z,96528.56
2022-09-02T07:09:33.851Z,96521.06
2022-09-02T07:12:05.145Z,96528.69
2022-09-02T07:14:40.751Z,96538.47
2022-09-02T07:17:09.662Z,96533.75
2022-09-02T07:19:36.884Z,96533.22
2022-09-02T07:22:07.571Z,96534.47
2022-09-02T07:24:34.675Z,96528.47
2022-09-02T07:27:01.589Z,96527.97
2022-09-02T07:31:55.375Z,96528.09
2022-09-02T07:34:22.325Z,96528.25
2022-09-02T07:36:49.132Z,96525.66
2022-09-02T07:39:18.978Z,96529.56
2022-09-02T07:41:50.245Z,96526.78
2022-09-02T07:44:19.238Z,96529.56
2022-09-02T07:46:46.928Z,96524.00
2022-09-02T07:49:15.580Z,96533.66
2022-09-02T07:51:46.482Z,96531.13
2022-09-02T07:54:13.573Z,96531.16
2022-09-02T07:56:40.790Z,96524.50
2022-09-02T07:59:07.606Z,96524.69
2022-09-02T08:01:35.039Z,96528.44
2022-09-02T08:04:05.645Z,96531.00
2022-09-02T08:06:35.123Z,96524.19
2022-09-02T08:09:06.748Z,96528.47
2022-09-02T08:11:39.227Z,96532.97
2022-09-02T08:14:09.462Z,96528.59
2022-09-02T08:16:38.133Z,96525.56
2022-09-02T08:19:07.289Z,96536.84
2022-09-02T08:21:34.095Z,96541.56
2022-09-02T08:24:00.898Z,96523.38
2022-09-02T08:26:28.466Z,96529.84
2022-09-02T08:28:56.021Z,96533.09
2022-09-02T08:31:22.973Z,96535.25
2022-09-02T08:33:49.883Z,96531.00
2022-09-02T08:36:16.802Z,96529.91
2022-09-02T08:38:44.621Z,96526.16
2022-09-02T08:41:43.687Z,96518.13
2022-09-02T08:44:12.470Z,96517.03
2022-09-02T08:46:39.560Z,96507.97
2022-09-02T08:49:26.875Z,96511.72
2022-09-02T08:52:01.029Z,96511.13
2022-09-02T08:54:48.995Z,96499.53
2022-09-02T08:57:16.133Z,96504.69
2022-09-02T08:59:44.212Z,96506.34
2022-09-02T09:02:47.848Z,96504.72
2022-09-02T09:06:29.266Z,96501.22
2022-09-02T09:09:51.414Z,96502.00
2022-09-02T09:12:51.011Z,96516.72
2022-09-02T09:15:43.787Z,96493.16
2022-09-02T09:18:19.795Z,96504.16
2022-09-02T09:20:47.121Z,96502.56
2022-09-02T09:23:34.719Z,96488.13
2022-09-02T09:26:28.491Z,96493.91
2022-09-02T09:28:59.199Z,96488.38
2022-09-02T09:31:31.062Z,96485.97
2022-09-02T09:34:12.205Z,96488.84
2022-09-02T09:36:42.090Z,96478.47
2022-09-02T09:39:30.989Z,96479.47
2022-09-02T09:42:14.415Z,96490.41
2022-09-02T09:44:49.078Z,96484.06
2022-09-02T09:47:23.098Z,96483.72
2022-09-02T09:50:12.910Z,96471.84
2022-09-02T09:52:39.770Z,96470.38
2022-09-02T09:55:27.322Z,96470.34
2022-09-02T09:58:09.470Z,96466.84
2022-09-02T10:00:37.418Z,96467.91
2022-09-02T10:03:08.281Z,96463.25
2022-09-02T10:05:38.984Z,96458.25
2022-09-02T10:08:22.034Z,96460.56
2022-09-02T10:11:02.562Z,96464.34
2022-09-02T10:13:33.415Z,96463.84
2022-09-02T10:16:28.634Z,96464.81
2022-09-02T10:19:26.652Z,96473.91
2022-09-02T10:22:09.935Z,96460.09
2022-09-02T10:25:09.726Z,96458.97
2022-09-02T10:27:58.615Z,96456.41
2022-09-02T10:30:26.382Z,96457.19
2022-09-02T10:33:04.974Z,96453.94
2022-09-02T10:35:46.178Z,96459.84
2022-09-02T10:38:37.315Z,96453.06
2022-09-02T10:44:38.226Z,96455.00
2022-09-02T10:47:29.332Z,96436.53
2022-09-02T10:50:33.718Z,96441.63
2022-09-02T10:53:18.510Z,96437.31
2022-09-02T10:56:08.583Z,96440.91
2022-09-02T10:58:52.865Z,96439.28
2022-09-02T11:01:33.602Z,96438.84
2022-09-02T11:04:29.632Z,96440.94
2022-09-02T11:07:05.062Z,96427.56
2022-09-02T11:09:46.163Z,96417.16
2022-09-02T11:12:21.211Z,96415.13
2022-09-02T11:15:27.526Z,96412.47
2022-09-02T11:18:30.177Z,96412.63
2022-09-02T11:21:03.596Z,96410.44
2022-09-02T11:23:59.989Z,96413.88
2022-09-02T11:26:38.918Z,96414.00
2022-09-02T11:29:54.908Z,96410.94
2022-09-02T11:32:38.578Z,96410.03
2022-09-02T11:35:10.965Z,96405.50
2022-09-02T11:37:56.042Z,96407.34
2022-09-02T11:40:38.736Z,96397.81
2022-09-02T11:43:49.559Z,96405.41
2022-09-02T11:46:37.865Z,96405.13
2022-09-02T11:50:06.776Z,96405.81
2022-09-02T11:52:47.172Z,96401.81
2022-09-02T11:55:31.520Z,96401.91
2022-09-02T11:57:59.115Z,96395.88
2022-09-02T12:00:33.618Z,96397.38
2022-09-02T12:03:16.754Z,96389.19
2022-09-02T12:05:51.929Z,96390.81
2022-09-02T12:08:28.455Z,96390.06
2022-09-02T12:11:01.093Z,96391.28
2022-09-02T12:16:23.490Z,96391.72
2022-09-02T12:18:56.767Z,96389.56
2022-09-02T12:21:28.461Z,96392.19
2022-09-02T12:23:58.226Z,96387.13
2022-09-02T12:26:50.944Z,96388.78
2022-09-02T12:29:24.627Z,96386.53
2022-09-02T12:31:52.793Z,96397.63
2022-09-02T12:34:25.350Z,96388.44
2022-09-02T12:37:00.132Z,96384.22
2022-09-02T12:39:27.358Z,96383.31
2022-09-02T12:42:03.146Z,96384.56
2022-09-02T12:44:46.421Z,96374.09
2022-09-02T12:47:45.296Z,96365.19
2022-09-02T12:50:53.558Z,96369.81
2022-09-02T12:53:43.485Z,96366.38
2022-09-02T12:56:13.192Z,96364.84
2022-09-02T12:58:46.054Z,96367.97
2022-09-02T13:01:25.488Z,96363.81
2022-09-02T13:04:46.983Z,96353.66
2022-09-02T13:07:46.565Z,96361.38
2022-09-02T13:10:46.647Z,96356.78
2022-09-02T13:13:41.659Z,96357.41
2022-09-02T13:17:08.947Z,96358.38
2022-09-02T13:20:27.654Z,96358.94
2022-09-02T13:23:18.458Z,96349.53
2022-09-02T13:26:45.905Z,96351.81
2022-09-02T13:29:37.306Z,96340.31
2022-09-02T13:32:10.126Z,96339.25
2022-09-02T13:34:58.390Z,96337.44
2022-09-02T13:37:29.280Z,96333.63
2022-09-02T13:39:56.591Z,96324.94
2022-09-02T13:42:27.589Z,96318.50
2022-09-02T13:45:19.630Z,96324.06
2022-09-02T13:47:53.467Z,96333.34
2022-09-02T13:50:31.847Z,96320.59
2022-09-02T13:55:57.262Z,96319.41
2022-09-02T13:58:42.643Z,96317.75
2022-09-02T14:01:44.405Z,96323.09
2022-09-02T14:04:15.439Z,96322.63
2022-09-02T14:06:45.663Z,96321.63
2022-09-02T14:09:25.063Z,96311.66
2022-09-02T14:11:53.740Z,96316.28
2022-09-02T14:14:24.620Z,96308.34
2022-09-02T14:16:52.539Z,96301.78
2022-09-02T14:19:22.291Z,96305.63
2022-09-02T14:21:57.601Z,96301.78
2022-09-02T14:24:30.430Z,96294.78
2022-09-02T14:26:59.301Z,96299.16
2022-09-02T14:29:31.934Z,96283.00
2022-09-02T14:32:23.544Z,96280.13
2022-09-02T14:35:09.673Z,96278.09
2022-09-02T14:37:57.625Z,96273.78
2022-09-02T14:40:38.629Z,96270.91
2022-09-02T14:43:15.478Z,96271.72
2022-09-02T14:45:49.583Z,96279.94
2022-09-02T14:48:25.490Z,96274.41
2022-09-02T14:51:05.746Z,96273.50
2022-09-02T14:53:33.800Z,96264.44
2022-09-02T14:56:01.035Z,96262.59
2022-09-02T14:58:29.109Z,96258.56
2022-09-02T15:01:01.596Z,96255.72
2022-09-02T15:03:31.431Z,96266.56
2022-09-02T15:05:58.895Z,96272.50
2022-09-02T15:08:25.988Z,96260.44
2022-09-02T15:10:54.300Z,96257.59
2022-09-02T15:13:36.576Z,96253.78
2022-09-02T15:16:03.766Z,96253.56
2022-09-02T15:18:30.714Z,96246.13
2022-09-02T15:20:57.674Z,96247.44
2022-09-02T15:23:25.264Z,96250.22
2022-09-02T15:25:54.166Z,96240.78
2022-09-02T15:28:21.167Z,96241.50
2022-09-02T15:30:48.109Z,96240.06
2022-09-02T15:33:17.438Z,96249.97
2022-09-02T15:35:46.742Z,96252.75
2022-09-02T15:38:13.538Z,96249.22
2022-09-02T15:40:40.378Z,96247.00
2022-09-02T15:43:07.183Z,96244.19
2022-09-02T15:45:35.122Z,96252.47
2022-09-02T15:48:02.202Z,96249.91
2022-09-02T15:50:34.233Z,96257.94
2022-09-02T15:53:01.279Z,96258.31
2022-09-02T15:55:32.258Z,96250.59
2022-09-02T15:57:59.498Z,96248.66
2022-09-02T16:00:27.728Z,96246.59
2022-09-02T16:02:56.914Z,96255.22
2022-09-02T16:05:24.197Z,96233.72
2022-09-02T16:07:54.706Z,96239.75
2022-09-02T16:10:21.598Z,96243.91
2022-09-02T16:12:48.710Z,96236.94
2022-09-02T16:15:15.794Z,96231.09
2022-09-02T16:17:42.584Z,96240.00
2022-09-02T16:20:09.816Z,96236.72
2022-09-02T16:22:37.329Z,96230.34
2022-09-02T16:25:04.461Z,96229.56
2022-09-02T16:27:49.631Z,96229.31
2022-09-02T16:30:16.554Z,96229.31
2022-09-02T16:32:44.279Z,96227.56
2022-09-02T16:35:11.100Z,96227.38
2022-09-02T16:37:37.895Z,96238.13
2022-09-02T16:40:05.800Z,96238.75
2022-09-02T16:42:37.510Z,96230.91
2022-09-02T16:45:05.699Z,96224.56
2022-09-02T16:47:32.494Z,96226.00
2022-09-02T16:49:59.279Z,96220.16
2022-09-02T16:52:26.074Z,96224.16
2022-09-02T16:54:52.874Z,96219.09
2022-09-02T16:57:19.746Z,96229.81
2022-09-02T16:59:46.559Z,96220.34
2022-09-02T17:02:13.402Z,96228.16
2022-09-02T17:04:40.242Z,96226.03
2022-09-02T17:07:07.931Z,96229.38
2022-09-02T17:09:34.807Z,96224.00
2022-09-02T17:12:01.649Z,96216.03
2022-09-02T17:14:28.498Z,96221.94
2022-09-02T17:16:55.462Z,96220.88
2022-09-02T17:19:22.855Z,96226.25
2022-09-02T17:21:54.726Z,96217.19
2022-09-02T17:24:31.465Z,96219.31
2022-09-02T17:27:00.221Z,96230.56
2022-09-02T17:29:48.535Z,96234.31
2022-09-02T17:32:15.577Z,96229.53
2022-09-02T17:34:42.421Z,96230.88
2022-09-02T17:37:09.315Z,96229.00
2022-09-02T17:39:36.271Z,96223.63
2022-09-02T17:42:06.742Z,96240.75
2022-09-02T17:44:37.553Z,96232.72
2022-09-02T17:47:20.096Z,96234.31
2022-09-02T17:49:48.238Z,96240.66
2022-09-02T17:52:24.049Z,96231.53
2022-09-02T17:54:53.525Z,96234.38
2022-09-02T17:57:59.643Z,96231.97
2022-09-02T18:00:28.263Z,96235.16
2022-09-02T18:03:44.985Z,96229.38
2022-09-02T18:06:20.075Z,96238.34
2022-09-02T18:08:58.398Z,96234.34
2022-09-02T18:11:26.164Z,96241.50
2022-09-02T18:14:07.822Z,96239.34
2022-09-02T18:17:10.705Z,96241.44
2022-09-02T18:20:03.125Z,96246.13
2022-09-02T18:22:55.883Z,96242.03
2022-09-02T18:25:30.305Z,96237.50
2022-09-02T18:28:10.118Z,96240.13
2022-09-02T18:31:07.243Z,96242.81
2022-09-02T18:33:54.383Z,96252.34
2022-09-02T18:36:35.295Z,96245.91
2022-09-02T18:39:27.027Z,96249.56
2022-09-02T18:42:07.526Z,96258.88
2022-09-02T18:45:01.161Z,96263.56
2022-09-02T18:47:35.826Z,96275.59
2022-09-02T18:50:06.412Z,96271.59
2022-09-02T18:52:34.549Z,96282.47
2022-09-02T18:55:07.361Z,96286.72
2022-09-02T18:57:45.572Z,96284.16
2022-09-02T19:00:15.302Z,96283.22
2022-09-02T19:03:02.323Z,96279.94
2022-09-02T19:05:32.563Z,96277.75
2022-09-02T19:08:25.104Z,96290.00
2022-09-02T19:11:05.677Z,96289.88
2022-09-02T19:13:49.789Z,96290.41
2022-09-02T19:16:30.438Z,96290.28
2022-09-02T19:18:57.534Z,96281.56
2022-09-02T19:21:46.108Z,96291.38
2022-09-02T19:24:24.390Z,96288.66
2022-09-02T19:27:04.299Z,96295.00
2022-09-02T19:29:34.114Z,96293.00
2022-09-02T19:32:01.276Z,96287.34
2022-09-02T19:34:38.059Z,96287.97
2022-09-02T19:37:05.323Z,96296.09
2022-09-02T19:39:35.147Z,96304.06
2022-09-02T19:42:01.994Z,96297.81
2022-09-02T19:44:29.145Z,96300.09
2022-09-02T19:48:02.767Z,96305.09
2022-09-02T19:49:44.042Z,96299.47
2022-09-02T19:52:11.994Z,96306.88
2022-09-02T19:54:40.988Z,96304.47
2022-09-02T19:57:07.811Z,96296.97
2022-09-02T19:59:34.651Z,96290.78
2022-09-02T20:02:03.454Z,96290.38
2022-09-02T20:04:31.164Z,96289.00
2022-09-02T20:07:01.955Z,96287.41
2022-09-02T20:09:29.376Z,96289.97
2022-09-02T20:11:56.810Z,96282.50
2022-09-02T20:14:24.722Z,96286.78
2022-09-02T20:16:59.958Z,96277.75
2022-09-02T20:19:27.218Z,96276.13
2022-09-02T20:21:54.111Z,96283.41
2022-09-02T20:24:27.202Z,96291.25
2022-09-02T20:27:22.404Z,96291.75
2022-09-02T20:30:05.842Z,96291.25
2022-09-02T20:33:15.959Z,96281.59
2022-09-02T20:36:21.166Z,96285.16
2022-09-02T20:39:55.355Z,96292.06
2022-09-02T20:42:34.327Z,96294.44
2022-09-02T20:45:16.445Z,96295.09
2022-09-02T20:48:14.529Z,96300.00
2022-09-02T20:51:15.871Z,96293.31
2022-09-02T20:54:13.243Z,96296.41
2022-09-02T20:57:23.125Z,96294.84
2022-09-02T21:00:16.671Z,96289.44
2022-09-02T21:03:10.921Z,96283.53
2022-09-02T21:05:42.730Z,96291.06
2022-09-02T21:08:26.398Z,96285.63
2022-09-02T21:10:57.266Z,96292.50
2022-09-02T21:14:00.766Z,96270.66
2022-09-02T21:16:36.881Z,96276.31
2022-09-02T21:19:30.815Z,96285.06
2022-09-02T21:22:10.316Z,96288.84
2022-09-02T21:25:00.027Z,96291.22
2022-09-02T21:27:45.047Z,96288.84
2022-09-02T21:30:25.190Z,96293.84
2022-09-02T21:33:01.810Z,96292.53
2022-09-02T21:35:38.970Z,96307.44
2022-09-02T21:38:37.439Z,96293.69
2022-09-02T21:41:42.694Z,96290.47
2022-09-02T21:44:21.992Z,96287.81
2022-09-02T21:47:36.092Z,96290.47
2022-09-02T21:50:26.006Z,96281.47
2022-09-02T21:53:21.978Z,96282.69
2022-09-02T21:56:22.003Z,96287.78
2022-09-02T21:59:56.474Z,96287.91
2022-09-02T22:02:35.093Z,96278.91
2022-09-02T22:05:56.174Z,96281.13
2022-09-02T22:08:53.763Z,96289.53
2022-09-02T22:11:44.775Z,96291.84
2022-09-02T22:14:26.300Z,96292.88
2022-09-02T22:16:58.983Z,96298.66
2022-09-02T22:19:31.446Z,96296.56
2022-09-02T22:22:11.367Z,96294.50
2022-09-02T22:24:40.449Z,96298.19
2022-09-02T22:27:14.390Z,96301.88
2022-09-02T22:29:49.863Z,96289.19
2022-09-02T22:32:23.814Z,96297.97
2022-09-02T22:35:11.391Z,96297.97
2022-09-02T22:37:58.267Z,96299.69
2022-09-02T22:40:32.391Z,96294.72
2022-09-02T22:43:07.359Z,96308.78
2022-09-02T22:46:03.621Z,96293.09
2022-09-02T22:49:10.222Z,96290.34
2022-09-02T22:52:14.389Z,96282.75
2022-09-02T22:54:41.277Z,96272.16
2022-09-02T22:57:33.782Z,96273.78
2022-09-02T23:00:15.626Z,96273.19
2022-09-02T23:03:14.574Z,96279.41
2022-09-02T23:06:03.224Z,96283.00
2022-09-02T23:08:31.591Z,96265.72
2022-09-02T23:11:06.706Z,96266.41
2022-09-02T23:14:44.469Z,96268.34
2022-09-02T23:17:34.687Z,96259.72
2022-09-02T23:20:23.333Z,96269.19
2022-09-02T23:23:38.838Z,96268.84
2022-09-02T23:26:33.123Z,96276.44
2022-09-02T23:29:16.419Z,96281.94
2022-09-02T23:32:23.378Z,96282.06
2022-09-02T23:35:27.806Z,96282.06
2022-09-02T23:38:22.155Z,96289.91
2022-09-02T23:41:06.858Z,96286.00
2022-09-02T23:43:34.691Z,96289.34
2022-09-02T23:46:31.658Z,96288.53
2022-09-02T23:49:10.393Z,96283.69
2022-09-02T23:52:03.472Z,96274.81
2022-09-02T23:54:50.464Z,96280.00
2022-09-02T23:57:27.221Z,96282.31
